createdAt,value
2022-10-13T00:00:05.469Z,102062.22
2022-10-13T00:02:31.779Z,102068.56
2022-10-13T00:04:58.120Z,102065.16
2022-10-13T00:07:24.537Z,102060.09
2022-10-13T00:09:50.871Z,102052.28
2022-10-13T00:12:18.126Z,102048.72
2022-10-13T00:14:44.569Z,102050.56
2022-10-13T00:17:10.932Z,102047.94
2022-10-13T00:19:37.270Z,102047.94
2022-10-13T00:22:03.669Z,102057.75
2022-10-13T00:24:30.307Z,102060.28
2022-10-13T00:26:56.660Z,102052.28
2022-10-13T00:29:22.966Z,102049.56
2022-10-13T00:31:49.287Z,102041.53
2022-10-13T00:34:15.622Z,102048.50
2022-10-13T00:36:41.991Z,102047.03
2022-10-13T00:39:08.315Z,102044.28
2022-10-13T00:41:34.751Z,102042.38
2022-10-13T00:44:03.784Z,102041.34
2022-10-13T00:46:32.809Z,102048.31
2022-10-13T00:49:03.638Z,102044.91
2022-10-13T00:51:33.531Z,102040.69
2022-10-13T00:54:03.303Z,102044.91
2022-10-13T00:56:29.984Z,102040.38
2022-10-13T00:58:57.167Z,102035.00
2022-10-13T01:01:23.665Z,102036.50
2022-10-13T01:03:50.037Z,102044.09
2022-10-13T01:06:21.144Z,102041.56
2022-10-13T01:08:49.915Z,102044.09
2022-10-13T01:11:28.375Z,102043.13
2022-10-13T01:14:16.524Z,102043.66
2022-10-13T01:16:59.062Z,102038.09
2022-10-13T01:19:52.570Z,102043.25
2022-10-13T01:22:49.647Z,102034.28
2022-10-13T01:25:33.838Z,102027.25
2022-10-13T01:28:40.645Z,102031.44
2022-10-13T01:31:26.759Z,102028.91
2022-10-13T01:34:34.069Z,102027.25
2022-10-13T01:37:24.447Z,102025.53
2022-10-13T01:40:01.808Z,102026.38
2022-10-13T01:42:36.513Z,102029.88
2022-10-13T01:45:04.322Z,102028.91
2022-10-13T01:47:34.210Z,102028.69
2022-10-13T01:50:02.311Z,102029.25
2022-10-13T01:52:38.956Z,102021.84
2022-10-13T01:55:08.883Z,102018.25
2022-10-13T01:57:43.714Z,102013.72
2022-10-13T02:00:12.248Z,102015.19
2022-10-13T02:03:00.031Z,102018.56
2022-10-13T02:05:38.375Z,102018.41
2022-10-13T02:08:15.062Z,101999.81
2022-10-13T02:11:11.762Z,101996.22
2022-10-13T02:13:43.519Z,101969.00
2022-10-13T02:16:11.021Z,101955.91
2022-10-13T02:18:38.104Z,101980.91
2022-10-13T02:21:04.723Z,101981.63
2022-10-13T02:23:31.511Z,101989.38
2022-10-13T02:25:59.427Z,101986.50
2022-10-13T02:28:27.618Z,101981.88
2022-10-13T02:30:54.016Z,101980.69
2022-10-13T02:33:20.407Z,101983.22
2022-10-13T02:35:46.726Z,101978.88
2022-10-13T02:38:16.242Z,101989.25
2022-10-13T02:40:42.639Z,101979.09
2022-10-13T02:43:08.967Z,101971.28
2022-10-13T02:45:35.291Z,101975.50
2022-10-13T02:48:01.635Z,101966.63
2022-10-13T02:50:28.027Z,101962.19
2022-10-13T02:52:54.376Z,101956.91
2022-10-13T02:55:21.052Z,101955.94
2022-10-13T02:57:47.398Z,101952.34
2022-10-13T03:00:14.532Z,101923.53
2022-10-13T03:02:40.888Z,101907.94
2022-10-13T03:05:07.633Z,101923.66
2022-10-13T03:07:34.096Z,101925.03
2022-10-13T03:10:00.594Z,101936.44
2022-10-13T03:12:27.234Z,101938.09
2022-10-13T03:14:53.618Z,101942.53
2022-10-13T03:17:20.054Z,101945.91
2022-10-13T03:19:46.372Z,101952.88
2022-10-13T03:22:15.257Z,101953.09
2022-10-13T03:24:42.426Z,101957.53
2022-10-13T03:27:08.886Z,101955.50
2022-10-13T03:29:35.215Z,101956.88
2022-10-13T03:32:01.613Z,101946.19
2022-10-13T03:34:27.948Z,101939.94
2022-10-13T03:36:54.252Z,101939.88
2022-10-13T03:39:20.619Z,101939.75
2022-10-13T03:41:46.956Z,101925.81
2022-10-13T03:44:13.985Z,101919.78
2022-10-13T03:46:40.526Z,101917.16
2022-10-13T03:49:06.971Z,101914.50
2022-10-13T03:51:33.798Z,101917.16
2022-10-13T03:54:00.201Z,101906.81
2022-10-13T03:56:27.813Z,101914.03
2022-10-13T03:59:00.222Z,101920.75
2022-10-13T04:01:29.200Z,101906.59
2022-10-13T04:03:56.465Z,101915.25
2022-10-13T04:06:23.499Z,101914.50
2022-10-13T04:08:50.321Z,101909.97
2022-10-13T04:11:17.306Z,101909.13
2022-10-13T04:13:44.519Z,101908.91
2022-10-13T04:16:17.904Z,101915.03
2022-10-13T04:18:45.154Z,101906.97
2022-10-13T04:21:14.674Z,101909.81
2022-10-13T04:23:41.092Z,101895.06
2022-10-13T04:26:07.482Z,101881.53
2022-10-13T04:28:35.884Z,101876.00
2022-10-13T04:31:03.455Z,101870.72
2022-10-13T04:33:30.080Z,101869.03
2022-10-13T04:35:56.508Z,101873.59
2022-10-13T04:38:23.003Z,101881.53
2022-10-13T04:40:50.416Z,101881.53
2022-10-13T04:43:17.047Z,101887.53
2022-10-13T04:45:43.395Z,101890.88
2022-10-13T04:48:09.752Z,101889.44
2022-10-13T04:50:36.143Z,101892.94
2022-10-13T04:53:02.482Z,101894.00
2022-10-13T04:55:28.810Z,101900.59
2022-10-13T04:57:55.627Z,101891.91
2022-10-13T05:00:22.038Z,101903.31
2022-10-13T05:02:48.685Z,101909.97
2022-10-13T05:05:15.099Z,101901.44
2022-10-13T05:07:41.436Z,101900.59
2022-10-13T05:10:08.753Z,101892.56
2022-10-13T05:12:35.511Z,101896.16
2022-10-13T05:15:01.846Z,101898.28
2022-10-13T05:17:35.000Z,101904.66
2022-10-13T05:20:01.940Z,101897.66
2022-10-13T05:22:28.534Z,101899.97
2022-10-13T05:24:54.890Z,101902.16
2022-10-13T05:27:23.002Z,101911.75
2022-10-13T05:29:49.440Z,101911.56
2022-10-13T05:32:15.845Z,101906.97
2022-10-13T05:34:42.152Z,101897.13
2022-10-13T05:37:08.471Z,101896.56
2022-10-13T05:39:34.821Z,101896.47
2022-10-13T05:42:01.187Z,101882.28
2022-10-13T05:44:27.507Z,101885.78
2022-10-13T05:46:54.153Z,101885.44
2022-10-13T05:49:20.643Z,101887.13
2022-10-13T05:51:50.624Z,101894.69
2022-10-13T05:54:33.834Z,101893.84
2022-10-13T05:57:05.751Z,101893.84
2022-10-13T05:59:39.647Z,101885.69
2022-10-13T06:02:09.681Z,101881.38
2022-10-13T06:04:41.127Z,101876.94
2022-10-13T06:07:08.888Z,101887.50
2022-10-13T06:09:40.264Z,101878.50
2022-10-13T06:12:08.518Z,101884.50
2022-10-13T06:14:35.318Z,101873.06
2022-10-13T06:17:01.727Z,101863.34
2022-10-13T06:19:28.042Z,101852.56
2022-10-13T06:21:54.418Z,101846.31
2022-10-13T06:24:20.780Z,101843.53
2022-10-13T06:26:47.093Z,101838.25
2022-10-13T06:29:15.508Z,101840.78
2022-10-13T06:31:41.952Z,101861.19
2022-10-13T06:34:08.458Z,101857.84
2022-10-13T06:36:34.764Z,101845.34
2022-10-13T06:39:01.127Z,101847.03
2022-10-13T06:41:27.475Z,101840.69
2022-10-13T06:43:54.243Z,101841.53
2022-10-13T06:46:20.561Z,101848.47
2022-10-13T06:48:49.952Z,101852.94
2022-10-13T06:51:16.487Z,101865.31
2022-10-13T06:53:42.923Z,101873.25
2022-10-13T06:56:09.679Z,101878.28
2022-10-13T06:58:37.533Z,101883.22
2022-10-13T07:01:05.375Z,101885.84
2022-10-13T07:03:32.123Z,101884.56
2022-10-13T07:06:06.126Z,101875.41
2022-10-13T07:08:34.366Z,101868.81
2022-10-13T07:11:15.872Z,101860.53
2022-10-13T07:13:46.394Z,101865.56
2022-10-13T07:16:14.536Z,101861.72
2022-10-13T07:18:40.859Z,101871.22
2022-10-13T07:21:07.217Z,101864.88
2022-10-13T07:23:34.022Z,101869.91
2022-10-13T07:26:01.638Z,101866.78
2022-10-13T07:28:28.217Z,101866.34
2022-10-13T07:30:54.614Z,101862.38
2022-10-13T07:33:20.974Z,101855.00
2022-10-13T07:35:47.414Z,101852.97
2022-10-13T07:38:13.775Z,101855.97
2022-10-13T07:40:40.102Z,101867.03
2022-10-13T07:43:06.465Z,101871.09
2022-10-13T07:45:32.818Z,101864.63
2022-10-13T07:47:59.170Z,101869.16
2022-10-13T07:50:25.499Z,101868.94
2022-10-13T07:52:51.802Z,101868.56
2022-10-13T07:55:18.253Z,101866.00
2022-10-13T07:57:44.715Z,101864.78
2022-10-13T08:00:11.987Z,101862.59
2022-10-13T08:02:38.379Z,101862.22
2022-10-13T08:05:05.118Z,101863.91
2022-10-13T08:07:31.476Z,101859.44
2022-10-13T08:09:57.995Z,101863.78
2022-10-13T08:12:24.330Z,101861.72
2022-10-13T08:14:51.132Z,101863.03
2022-10-13T08:17:17.757Z,101851.41
2022-10-13T08:19:44.375Z,101852.53
2022-10-13T08:22:11.184Z,101845.78
2022-10-13T08:24:37.607Z,101841.09
2022-10-13T08:27:04.127Z,101844.34
2022-10-13T08:29:30.617Z,101837.50
2022-10-13T08:31:57.008Z,101845.38
2022-10-13T08:34:24.018Z,101848.00
2022-10-13T08:36:53.349Z,101844.22
2022-10-13T08:39:21.533Z,101847.19
2022-10-13T08:41:48.317Z,101839.16
2022-10-13T08:45:10.481Z,101851.41
2022-10-13T08:47:24.222Z,101858.81
2022-10-13T08:49:50.932Z,101849.84
2022-10-13T08:52:24.679Z,101856.13
2022-10-13T08:54:53.120Z,101855.38
2022-10-13T08:57:20.031Z,101848.47
2022-10-13T08:59:47.184Z,101849.25
2022-10-13T09:02:24.798Z,101842.88
2022-10-13T09:04:53.171Z,101839.84
2022-10-13T09:07:31.185Z,101834.56
2022-10-13T09:09:58.132Z,101846.28
2022-10-13T09:12:25.466Z,101840.53
2022-10-13T09:15:06.192Z,101848.19
2022-10-13T09:17:34.259Z,101840.53
2022-10-13T09:20:25.463Z,101837.59
2022-10-13T09:23:21.015Z,101842.88
2022-10-13T09:25:49.920Z,101836.75
2022-10-13T09:28:29.824Z,101839.53
2022-10-13T09:31:03.673Z,101828.22
2022-10-13T09:33:36.196Z,101835.22
2022-10-13T09:36:03.085Z,101833.25
2022-10-13T09:38:29.617Z,101827.41
2022-10-13T09:41:19.448Z,101829.25
2022-10-13T09:43:45.789Z,101821.19
2022-10-13T09:46:34.165Z,101825.13
2022-10-13T09:49:06.572Z,101826.81
2022-10-13T09:51:42.726Z,101829.34
2022-10-13T09:54:45.231Z,101823.78
2022-10-13T09:57:19.011Z,101834.94
2022-10-13T09:59:50.502Z,101836.66
2022-10-13T10:02:37.096Z,101834.16
2022-10-13T10:05:18.543Z,101824.78
2022-10-13T10:07:45.168Z,101826.75
2022-10-13T10:10:34.745Z,101825.38
2022-10-13T10:13:02.277Z,101828.84
2022-10-13T10:15:52.852Z,101823.25
2022-10-13T10:18:28.087Z,101829.38
2022-10-13T10:21:03.819Z,101823.94
2022-10-13T10:23:55.147Z,101823.66
2022-10-13T10:26:32.448Z,101817.88
2022-10-13T10:29:22.353Z,101822.16
2022-10-13T10:32:04.309Z,101816.41
2022-10-13T10:35:19.079Z,101811.59
2022-10-13T10:38:03.739Z,101805.41
2022-10-13T10:40:46.679Z,101808.31
2022-10-13T10:43:43.202Z,101810.66
2022-10-13T10:46:19.991Z,101806.34
2022-10-13T10:48:50.230Z,101799.94
2022-10-13T10:51:17.783Z,101809.13
2022-10-13T10:54:06.191Z,101801.34
2022-10-13T10:56:40.609Z,101804.47
2022-10-13T10:59:30.368Z,101811.31
2022-10-13T11:02:25.928Z,101802.00
2022-10-13T11:04:54.073Z,101792.72
2022-10-13T11:07:23.409Z,101797.91
2022-10-13T11:09:52.877Z,101789.44
2022-10-13T11:12:19.363Z,101794.75
2022-10-13T11:15:02.016Z,101790.88
2022-10-13T11:17:30.675Z,101791.72
2022-10-13T11:19:58.383Z,101788.81
2022-10-13T11:22:25.713Z,101783.03
2022-10-13T11:25:34.171Z,101781.72
2022-10-13T11:28:00.573Z,101791.53
2022-10-13T11:30:47.375Z,101796.31
2022-10-13T11:33:51.246Z,101785.72
2022-10-13T11:36:36.329Z,101784.53
2022-10-13T11:39:20.798Z,101785.38
2022-10-13T11:42:11.527Z,101774.06
2022-10-13T11:45:00.175Z,101774.75
2022-10-13T11:47:57.215Z,101770.56
2022-10-13T11:50:36.069Z,101776.50
2022-10-13T11:53:21.251Z,101771.03
2022-10-13T11:55:56.378Z,101773.59
2022-10-13T11:58:31.766Z,101774.97
2022-10-13T12:01:00.655Z,101762.28
2022-10-13T12:03:32.731Z,101767.19
2022-10-13T12:06:06.244Z,101758.50
2022-10-13T12:08:34.507Z,101758.22
2022-10-13T12:11:04.516Z,101767.59
2022-10-13T12:13:32.623Z,101758.06
2022-10-13T12:16:03.075Z,101758.63
2022-10-13T12:18:36.096Z,101756.41
2022-10-13T12:21:09.284Z,101758.50
2022-10-13T12:23:35.692Z,101755.53
2022-10-13T12:26:02.383Z,101754.16
2022-10-13T12:28:49.387Z,101752.19
2022-10-13T12:31:20.920Z,101749.28
2022-10-13T12:33:53.794Z,101746.88
2022-10-13T12:36:25.297Z,101751.50
2022-10-13T12:38:54.639Z,101743.25
2022-10-13T12:41:48.518Z,101742.69
2022-10-13T12:44:19.932Z,101739.31
2022-10-13T12:46:49.328Z,101741.56
2022-10-13T12:49:36.204Z,101736.69
2022-10-13T12:52:15.668Z,101737.91
2022-10-13T12:55:13.546Z,101738.19
2022-10-13T12:57:40.238Z,101741.56
2022-10-13T13:00:19.011Z,101741.56
2022-10-13T13:03:02.658Z,101743.38
2022-10-13T13:05:30.625Z,101742.09
2022-10-13T13:07:57.035Z,101747.25
2022-10-13T13:10:23.519Z,101746.38
2022-10-13T13:12:51.091Z,101750.94
2022-10-13T13:15:37.895Z,101737.06
2022-10-13T13:18:37.931Z,101742.50
2022-10-13T13:21:06.362Z,101738.88
2022-10-13T13:23:35.994Z,101735.78
2022-10-13T13:26:18.727Z,101738.34
2022-10-13T13:28:50.364Z,101730.38
2022-10-13T13:31:19.047Z,101740.56
2022-10-13T13:33:46.217Z,101728.03
2022-10-13T13:36:18.695Z,101728.78
2022-10-13T13:38:45.263Z,101731.63
2022-10-13T13:41:12.439Z,101721.41
2022-10-13T13:43:40.159Z,101729.22
2022-10-13T13:46:12.371Z,101721.16
2022-10-13T13:48:38.788Z,101712.78
2022-10-13T13:51:05.276Z,101709.44
2022-10-13T13:53:31.592Z,101709.75
2022-10-13T13:55:58.053Z,101702.44
2022-10-13T13:58:27.254Z,101716.00
2022-10-13T14:00:53.590Z,101713.03
2022-10-13T14:03:19.918Z,101716.97
2022-10-13T14:05:46.227Z,101705.25
2022-10-13T14:08:12.632Z,101703.84
2022-10-13T14:10:39.815Z,101704.25
2022-10-13T14:13:06.473Z,101698.53
2022-10-13T14:15:32.783Z,101699.38
2022-10-13T14:17:59.249Z,101697.09
2022-10-13T14:20:25.612Z,101686.22
2022-10-13T14:22:51.998Z,101680.59
2022-10-13T14:25:18.450Z,101684.41
2022-10-13T14:27:45.771Z,101688.75
2022-10-13T14:30:12.927Z,101680.63
2022-10-13T14:32:39.307Z,101683.72
2022-10-13T14:35:06.404Z,101683.13
2022-10-13T14:37:33.692Z,101672.41
2022-10-13T14:40:01.885Z,101674.22
2022-10-13T14:42:28.310Z,101667.50
2022-10-13T14:44:54.618Z,101677.56
2022-10-13T14:47:21.241Z,101664.41
2022-10-13T14:49:47.750Z,101665.22
2022-10-13T14:52:14.082Z,101664.28
2022-10-13T14:54:44.664Z,101664.28
2022-10-13T14:57:15.459Z,101658.53
2022-10-13T14:59:42.287Z,101666.97
2022-10-13T15:02:10.363Z,101668.50
2022-10-13T15:04:36.710Z,101675.91
2022-10-13T15:07:03.060Z,101669.63
2022-10-13T15:09:38.957Z,101675.34
2022-10-13T15:12:15.880Z,101672.53
2022-10-13T15:14:42.191Z,101669.88
2022-10-13T15:17:08.515Z,101668.50
2022-10-13T15:19:34.811Z,101654.09
2022-10-13T15:22:01.097Z,101664.69
2022-10-13T15:24:27.482Z,101653.81
2022-10-13T15:26:53.802Z,101655.22
2022-10-13T15:29:20.133Z,101664.88
2022-10-13T15:31:46.455Z,101657.16
2022-10-13T15:34:12.796Z,101660.81
2022-10-13T15:36:39.130Z,101658.56
2022-10-13T15:39:05.878Z,101650.88
2022-10-13T15:41:32.212Z,101663.56
2022-10-13T15:43:58.569Z,101661.22
2022-10-13T15:46:26.152Z,101651.44
2022-10-13T15:48:54.027Z,101647.66
2022-10-13T15:51:23.926Z,101652.69
2022-10-13T15:53:50.319Z,101643.75
2022-10-13T15:56:17.308Z,101645.72
2022-10-13T15:58:43.899Z,101644.88
2022-10-13T16:01:12.158Z,101649.38
2022-10-13T16:03:39.054Z,101644.31
2022-10-13T16:06:07.663Z,101635.66
2022-10-13T16:08:43.627Z,101639.56
2022-10-13T16:11:15.716Z,101638.28
2022-10-13T16:13:46.146Z,101650.03
2022-10-13T16:16:12.718Z,101650.44
2022-10-13T16:18:40.125Z,101640.13
2022-10-13T16:21:18.752Z,101638.56
2022-10-13T16:23:46.596Z,101634.53
2022-10-13T16:26:13.555Z,101626.81
2022-10-13T16:28:39.940Z,101622.78
2022-10-13T16:31:14.538Z,101632.13
2022-10-13T16:33:45.548Z,101627.22
2022-10-13T16:36:15.293Z,101625.69
2022-10-13T16:38:42.939Z,101637.13
2022-10-13T16:41:14.967Z,101622.19
2022-10-13T16:43:42.159Z,101633.06
2022-10-13T16:46:13.314Z,101636.69
2022-10-13T16:48:40.160Z,101633.34
2022-10-13T16:51:08.814Z,101638.88
2022-10-13T16:53:35.630Z,101642.50
2022-10-13T16:56:04.431Z,101641.53
2022-10-13T16:58:30.935Z,101647.56
2022-10-13T17:01:05.558Z,101643.22
2022-10-13T17:03:32.152Z,101643.34
2022-10-13T17:05:58.487Z,101649.47
2022-10-13T17:08:24.919Z,101642.50
2022-10-13T17:10:57.822Z,101654.78
2022-10-13T17:13:24.888Z,101653.94
2022-10-13T17:15:53.154Z,101655.06
2022-10-13T17:18:20.175Z,101654.22
2022-10-13T17:20:58.696Z,101656.88
2022-10-13T17:23:26.133Z,101664.53
2022-10-13T17:25:53.554Z,101667.19
2022-10-13T17:28:20.685Z,101674.31
2022-10-13T17:30:58.071Z,101670.69
2022-10-13T17:33:24.720Z,101672.38
2022-10-13T17:35:51.257Z,101675.97
2022-10-13T17:38:17.612Z,101683.00
2022-10-13T17:40:43.965Z,101677.69
2022-10-13T17:43:10.277Z,101675.91
2022-10-13T17:45:36.690Z,101677.69
2022-10-13T17:48:03.147Z,101680.72
2022-10-13T17:50:29.653Z,101679.16
2022-10-13T17:52:56.085Z,101676.53
2022-10-13T17:55:22.435Z,101685.44
2022-10-13T17:57:49.032Z,101683.63
2022-10-13T18:00:16.061Z,101683.78
2022-10-13T18:02:42.555Z,101690.75
2022-10-13T18:05:08.965Z,101692.41
2022-10-13T18:07:35.515Z,101683.63
2022-10-13T18:10:01.915Z,101689.91
2022-10-13T18:12:28.278Z,101687.13
2022-10-13T18:14:54.611Z,101693.69
2022-10-13T18:17:21.082Z,101703.56
2022-10-13T18:19:49.149Z,101693.50
2022-10-13T18:22:15.483Z,101701.00
2022-10-13T18:24:41.820Z,101709.72
2022-10-13T18:27:08.242Z,101711.22
2022-10-13T18:29:34.599Z,101707.56
2022-10-13T18:32:01.034Z,101713.97
2022-10-13T18:34:27.435Z,101717.00
2022-10-13T18:36:56.407Z,101723.41
2022-10-13T18:39:25.622Z,101728.94
2022-10-13T18:41:53.735Z,101734.25
2022-10-13T18:44:21.371Z,101743.03
2022-10-13T18:46:52.367Z,101744.13
2022-10-13T18:49:20.585Z,101736.44
2022-10-13T18:51:50.352Z,101743.69
2022-10-13T18:54:16.855Z,101751.63
2022-10-13T18:56:43.360Z,101756.22
2022-10-13T18:59:10.902Z,101757.44
2022-10-13T19:01:38.217Z,101761.28
2022-10-13T19:04:05.728Z,101764.19
2022-10-13T19:06:32.683Z,101763.59
2022-10-13T19:09:07.022Z,101765.41
2022-10-13T19:11:34.866Z,101760.25
2022-10-13T19:14:01.684Z,101759.41
2022-10-13T19:16:31.465Z,101761.34
2022-10-13T19:18:57.855Z,101763.16
2022-10-13T19:21:24.699Z,101761.84
2022-10-13T19:23:51.182Z,101760.41
2022-10-13T19:26:25.185Z,101757.28
2022-10-13T19:29:09.847Z,101768.38
2022-10-13T19:31:38.281Z,101767.94
2022-10-13T19:34:04.814Z,101763.84
2022-10-13T19:36:43.570Z,101762.41
2022-10-13T19:39:16.753Z,101763.16
2022-10-13T19:41:45.418Z,101756.91
2022-10-13T19:44:12.628Z,101761.59
2022-10-13T19:46:40.776Z,101761.00
2022-10-13T19:49:08.024Z,101759.19
2022-10-13T19:51:34.531Z,101772.44
2022-10-13T19:54:01.299Z,101780.47
2022-10-13T19:56:34.103Z,101773.00
2022-10-13T19:59:01.502Z,101764.84
2022-10-13T20:01:28.243Z,101759.53
2022-10-13T20:03:54.578Z,101771.72
2022-10-13T20:06:21.722Z,101777.00
2022-10-13T20:08:48.788Z,101776.22
2022-10-13T20:11:23.054Z,101777.97
2022-10-13T20:13:49.985Z,101785.38
2022-10-13T20:16:22.042Z,101776.34
2022-10-13T20:18:54.235Z,101779.63
2022-10-13T20:21:21.278Z,101778.63
2022-10-13T20:23:49.100Z,101797.75
2022-10-13T20:26:15.896Z,101787.13
2022-10-13T20:28:44.645Z,101795.59
2022-10-13T20:31:12.854Z,101799.28
2022-10-13T20:33:40.165Z,101789.38
2022-10-13T20:36:09.252Z,101787.41
2022-10-13T20:38:36.079Z,101794.69
2022-10-13T20:41:06.639Z,101795.66
2022-10-13T20:43:33.789Z,101800.63
2022-10-13T20:46:05.414Z,101804.50
2022-10-13T20:48:51.151Z,101802.84
2022-10-13T20:51:22.059Z,101808.94
2022-10-13T20:53:48.696Z,101798.81
2022-10-13T20:56:18.088Z,101806.00
2022-10-13T20:58:45.098Z,101801.16
2022-10-13T21:01:12.001Z,101808.94
2022-10-13T21:03:39.492Z,101807.88
2022-10-13T21:06:08.800Z,101812.19
2022-10-13T21:08:35.493Z,101813.97
2022-10-13T21:11:04.218Z,101817.13
2022-10-13T21:13:30.858Z,101812.69
2022-10-13T21:15:57.160Z,101811.50
2022-10-13T21:18:23.584Z,101814.66
2022-10-13T21:20:49.907Z,101822.25
2022-10-13T21:23:16.235Z,101827.41
2022-10-13T21:25:42.547Z,101819.38
2022-10-13T21:28:08.880Z,101822.88
2022-10-13T21:30:35.287Z,101821.94
2022-10-13T21:33:01.692Z,101821.94
2022-10-13T21:35:28.043Z,101820.47
2022-10-13T21:37:54.376Z,101810.97
2022-10-13T21:40:20.697Z,101808.22
2022-10-13T21:42:47.030Z,101800.31
2022-10-13T21:45:13.460Z,101794.31
2022-10-13T21:47:39.892Z,101794.31
2022-10-13T21:50:06.744Z,101799.59
2022-10-13T21:52:35.978Z,101798.63
2022-10-13T21:55:03.166Z,101801.47
2022-10-13T21:57:29.549Z,101792.59
2022-10-13T21:59:56.122Z,101797.88
2022-10-13T22:02:22.490Z,101796.19
2022-10-13T22:04:49.186Z,101796.44
2022-10-13T22:07:15.601Z,101797.28
2022-10-13T22:09:41.898Z,101783.38
2022-10-13T22:12:09.121Z,101791.38
2022-10-13T22:14:35.509Z,101786.00
2022-10-13T22:17:01.849Z,101781.56
2022-10-13T22:19:28.179Z,101777.22
2022-10-13T22:21:54.494Z,101777.22
2022-10-13T22:24:21.638Z,101781.66
2022-10-13T22:26:49.803Z,101780.94
2022-10-13T22:29:19.223Z,101771.94
2022-10-13T22:31:45.653Z,101764.78
2022-10-13T22:34:14.146Z,101765.63
2022-10-13T22:36:44.486Z,101768.38
2022-10-13T22:39:11.582Z,101770.19
2022-10-13T22:41:37.944Z,101768.38
2022-10-13T22:44:04.375Z,101778.28
2022-10-13T22:46:33.764Z,101775.53
2022-10-13T22:49:00.833Z,101771.94
2022-10-13T22:51:29.318Z,101774.69
2022-10-13T22:53:56.221Z,101765.22
2022-10-13T22:56:25.437Z,101763.56
2022-10-13T22:59:00.467Z,101763.75
2022-10-13T23:01:27.129Z,101761.97
2022-10-13T23:03:56.120Z,101764.59
2022-10-13T23:06:25.246Z,101755.13
2022-10-13T23:08:51.677Z,101755.13
2022-10-13T23:11:18.735Z,101753.66
2022-10-13T23:13:45.495Z,101759.16
2022-10-13T23:16:23.721Z,101761.06
2022-10-13T23:18:50.819Z,101760.31
2022-10-13T23:21:19.306Z,101750.50
2022-10-13T23:23:46.530Z,101748.59
2022-10-13T23:26:16.000Z,101750.28
2022-10-13T23:28:43.015Z,101745.25
2022-10-13T23:31:14.823Z,101747.34
2022-10-13T23:33:41.192Z,101742.28
2022-10-13T23:36:08.601Z,101733.66
2022-10-13T23:38:35.410Z,101734.09
2022-10-13T23:41:07.702Z,101729.97
2022-10-13T23:43:34.024Z,101739.19
2022-10-13T23:46:00.914Z,101746.13
2022-10-13T23:48:28.120Z,101734.94
2022-10-13T23:50:54.600Z,101735.06
2022-10-13T23:53:21.633Z,101736.22
2022-10-13T23:55:47.987Z,101746.13
2022-10-13T23:58:14.659Z,101755.00
